createdAt,value
2023-03-29T00:03:55.323Z,75.96
2023-03-29T00:09:16.268Z,75.93
2023-03-29T00:14:37.079Z,75.61
2023-03-29T00:19:57.230Z,75.82
2023-03-29T00:25:18.395Z,75.92
2023-03-29T00:30:38.877Z,76.03
2023-03-29T00:36:00.007Z,76.05
2023-03-29T00:41:21.736Z,76.21
2023-03-29T00:46:42.805Z,76.42
2023-03-29T00:52:03.545Z,76.81
2023-03-29T00:57:27.275Z,76.60
2023-03-29T01:02:54.465Z,76.49
2023-03-29T01:08:25.766Z,76.43
2023-03-29T01:13:58.367Z,76.37
2023-03-29T01:19:22.050Z,76.53
2023-03-29T01:24:57.548Z,76.73
2023-03-29T01:30:19.913Z,77.09
2023-03-29T01:35:59.808Z,76.72
2023-03-29T01:41:20.935Z,76.87
2023-03-29T01:46:47.856Z,76.84
2023-03-29T01:52:16.968Z,77.09
2023-03-29T01:57:43.804Z,77.25
2023-03-29T02:03:06.984Z,77.32
2023-03-29T02:08:29.691Z,77.01
2023-03-29T02:13:51.479Z,77.03
2023-03-29T02:19:13.397Z,77.18
2023-03-29T02:24:37.134Z,77.11
2023-03-29T02:29:58.881Z,77.10
2023-03-29T02:35:39.122Z,77.16
2023-03-29T02:41:01.364Z,77.39
2023-03-29T02:46:22.282Z,77.58
2023-03-29T02:51:44.654Z,77.62
2023-03-29T02:57:08.550Z,77.75
2023-03-29T03:02:29.738Z,77.71
2023-03-29T03:07:51.462Z,77.94
2023-03-29T03:13:12.612Z,77.95
2023-03-29T03:18:34.407Z,77.63
2023-03-29T03:23:55.699Z,77.73
2023-03-29T03:29:16.546Z,77.72
2023-03-29T03:34:56.509Z,77.72
2023-03-29T03:40:20.737Z,77.84
2023-03-29T03:45:42.940Z,77.91
2023-03-29T03:51:08.022Z,77.71
2023-03-29T03:56:29.924Z,77.60
2023-03-29T04:02:13.498Z,77.69
2023-03-29T04:07:34.421Z,77.61
2023-03-29T04:13:15.507Z,77.56
2023-03-29T04:18:56.325Z,77.53
2023-03-29T04:24:18.540Z,77.53
2023-03-29T04:29:55.492Z,77.56
2023-03-29T04:35:36.164Z,77.55
2023-03-29T04:40:58.166Z,77.32
2023-03-29T04:46:40.182Z,77.47
2023-03-29T04:52:27.158Z,77.37
2023-03-29T04:57:48.750Z,77.23
2023-03-29T05:03:14.621Z,77.39
2023-03-29T05:08:50.191Z,77.27
2023-03-29T05:14:18.372Z,77.27
2023-03-29T05:19:39.043Z,77.07
2023-03-29T05:25:01.147Z,77.31
2023-03-29T05:30:22.460Z,77.77
2023-03-29T05:35:49.443Z,77.99
2023-03-29T05:41:10.919Z,77.95
2023-03-29T05:46:34.900Z,78.18
2023-03-29T05:51:57.343Z,78.61
2023-03-29T05:57:19.131Z,78.04
2023-03-29T06:02:40.346Z,77.96
2023-03-29T06:08:01.705Z,78.02
2023-03-29T06:13:42.088Z,77.62
2023-03-29T06:19:02.976Z,77.72
2023-03-29T06:24:25.082Z,77.80
2023-03-29T06:29:54.340Z,77.68
2023-03-29T06:35:15.314Z,77.30
2023-03-29T06:41:58.553Z,77.64
2023-03-29T06:47:45.016Z,77.37
2023-03-29T06:53:05.733Z,77.22
2023-03-29T06:58:28.781Z,77.48
2023-03-29T07:03:54.232Z,77.91
2023-03-29T07:09:21.448Z,77.94
2023-03-29T07:15:09.408Z,78.39
2023-03-29T07:21:06.084Z,78.50
2023-03-29T07:26:28.541Z,78.32
2023-03-29T07:31:52.174Z,78.39
2023-03-29T07:37:32.862Z,78.74
2023-03-29T07:42:56.450Z,78.45
2023-03-29T07:48:19.658Z,78.49
2023-03-29T07:53:46.852Z,78.10
2023-03-29T07:59:27.255Z,78.48
2023-03-29T08:05:02.951Z,78.34
2023-03-29T08:10:44.972Z,78.39
2023-03-29T08:16:16.859Z,78.39
2023-03-29T08:21:45.066Z,78.36
2023-03-29T08:27:06.497Z,78.65
2023-03-29T08:32:27.729Z,79.00
2023-03-29T08:37:48.967Z,79.34
2023-03-29T08:43:31.360Z,79.43
2023-03-29T08:49:12.386Z,79.26
2023-03-29T08:54:49.731Z,79.37
2023-03-29T09:00:38.770Z,79.04
2023-03-29T09:06:04.536Z,78.96
2023-03-29T09:11:39.296Z,79.13
2023-03-29T09:17:20.044Z,79.36
2023-03-29T09:22:49.395Z,79.21
2023-03-29T09:28:21.012Z,79.40
2023-03-29T09:33:56.261Z,79.80
2023-03-29T09:39:23.160Z,80.33
2023-03-29T09:45:08.477Z,79.98
2023-03-29T09:50:38.473Z,80.16
2023-03-29T09:56:02.678Z,80.46
2023-03-29T10:01:39.467Z,80.42
2023-03-29T10:07:02.377Z,80.09
2023-03-29T10:12:23.404Z,80.20
2023-03-29T10:17:46.370Z,80.29
2023-03-29T10:23:09.026Z,79.87
2023-03-29T10:28:31.037Z,79.79
2023-03-29T10:33:54.591Z,80.02
2023-03-29T10:39:16.395Z,79.93
2023-03-29T10:44:37.426Z,79.73
2023-03-29T10:50:01.491Z,79.30
2023-03-29T10:55:29.190Z,79.55
2023-03-29T11:00:56.854Z,79.43
2023-03-29T11:06:21.940Z,79.90
2023-03-29T11:12:12.300Z,80.63
2023-03-29T11:18:05.578Z,80.51
2023-03-29T11:24:01.325Z,80.32
2023-03-29T11:29:41.140Z,80.00
2023-03-29T11:35:27.538Z,79.96
2023-03-29T11:40:55.010Z,79.95
2023-03-29T11:46:21.861Z,80.17
2023-03-29T11:51:50.800Z,80.34
2023-03-29T11:57:15.419Z,80.62
2023-03-29T12:02:39.367Z,80.81
2023-03-29T12:08:21.057Z,80.87
2023-03-29T12:13:52.414Z,80.92
2023-03-29T12:19:27.093Z,81.13
2023-03-29T12:24:52.342Z,81.20
2023-03-29T12:30:41.995Z,81.59
2023-03-29T12:36:30.346Z,81.63
2023-03-29T12:42:19.806Z,81.06
2023-03-29T12:48:00.238Z,80.63
2023-03-29T12:53:33.862Z,80.68
2023-03-29T12:59:09.316Z,80.46
2023-03-29T13:04:48.358Z,80.32
2023-03-29T13:10:10.994Z,80.35
2023-03-29T13:15:34.413Z,80.49
2023-03-29T13:21:00.940Z,80.46
2023-03-29T13:26:36.734Z,80.17
2023-03-29T13:32:06.521Z,80.72
2023-03-29T13:37:33.446Z,80.85
2023-03-29T13:43:20.369Z,80.71
2023-03-29T13:48:41.316Z,80.33
2023-03-29T13:54:28.377Z,80.02
2023-03-29T14:00:11.872Z,80.29
2023-03-29T14:05:37.296Z,81.16
2023-03-29T14:11:03.151Z,81.74
2023-03-29T14:16:31.478Z,81.52
2023-03-29T14:21:53.215Z,81.59
2023-03-29T14:27:14.282Z,81.74
2023-03-29T14:32:37.085Z,81.97
2023-03-29T14:37:58.495Z,82.14
2023-03-29T14:43:24.302Z,82.15
2023-03-29T14:48:45.380Z,82.26
2023-03-29T14:54:06.551Z,82.48
2023-03-29T14:59:42.838Z,82.36
2023-03-29T15:05:07.508Z,82.19
2023-03-29T15:10:31.682Z,82.35
2023-03-29T15:15:55.993Z,82.78
2023-03-29T15:21:20.521Z,82.75
2023-03-29T15:26:41.900Z,82.83
2023-03-29T15:32:03.705Z,82.83
2023-03-29T15:37:24.472Z,82.68
2023-03-29T15:42:45.500Z,82.78
2023-03-29T15:48:16.902Z,82.74
2023-03-29T15:53:37.462Z,82.86
2023-03-29T15:58:57.947Z,82.66
2023-03-29T16:04:20.746Z,82.87
2023-03-29T16:09:42.073Z,82.56
2023-03-29T16:15:08.289Z,82.68
2023-03-29T16:20:28.841Z,82.74
2023-03-29T16:25:49.451Z,82.62
2023-03-29T16:31:13.692Z,82.54
2023-03-29T16:36:34.938Z,82.32
2023-03-29T16:41:55.615Z,82.08
2023-03-29T16:47:16.285Z,82.38
2023-03-29T16:52:37.908Z,82.96
2023-03-29T16:57:58.356Z,83.10
2023-03-29T17:03:18.675Z,83.25
2023-03-29T17:08:39.573Z,83.24
2023-03-29T17:14:00.360Z,83.35
2023-03-29T17:19:21.335Z,83.55
2023-03-29T17:24:41.846Z,83.43
2023-03-29T17:30:04.662Z,83.25
2023-03-29T17:35:26.417Z,82.95
2023-03-29T17:40:54.265Z,82.92
2023-03-29T17:46:16.521Z,82.59
2023-03-29T17:51:36.936Z,82.66
2023-03-29T17:56:57.786Z,82.96
2023-03-29T18:02:21.302Z,83.13
2023-03-29T18:07:41.748Z,83.07
2023-03-29T18:13:02.292Z,83.18
2023-03-29T18:18:23.940Z,83.41
2023-03-29T18:23:47.216Z,83.48
2023-03-29T18:29:09.860Z,83.66
2023-03-29T18:34:31.260Z,83.77
2023-03-29T18:39:51.938Z,83.91
2023-03-29T18:45:12.646Z,83.79
2023-03-29T18:50:34.740Z,83.76
2023-03-29T18:55:55.830Z,83.57
2023-03-29T19:01:16.375Z,83.38
2023-03-29T19:06:36.915Z,82.93
2023-03-29T19:11:57.520Z,82.89
2023-03-29T19:17:19.540Z,83.06
2023-03-29T19:22:40.237Z,82.67
2023-03-29T19:28:03.406Z,82.76
2023-03-29T19:33:24.344Z,82.74
2023-03-29T19:38:45.725Z,82.84
2023-03-29T19:44:06.956Z,82.80
2023-03-29T19:49:27.400Z,82.79
2023-03-29T19:54:48.338Z,82.83
2023-03-29T20:00:14.176Z,82.91
2023-03-29T20:05:35.667Z,82.98
2023-03-29T20:10:58.492Z,83.16
2023-03-29T20:16:19.537Z,83.08
2023-03-29T20:21:40.201Z,83.17
2023-03-29T20:27:00.849Z,83.06
2023-03-29T20:32:21.258Z,82.91
2023-03-29T20:37:42.077Z,83.00
2023-03-29T20:43:02.618Z,82.94
2023-03-29T20:48:24.260Z,82.84
2023-03-29T20:53:46.592Z,82.89
2023-03-29T20:59:10.586Z,83.04
2023-03-29T21:04:31.602Z,83.12
2023-03-29T21:09:52.320Z,83.16
2023-03-29T21:15:13.548Z,83.27
2023-03-29T21:20:37.545Z,83.17
2023-03-29T21:25:57.894Z,83.09
2023-03-29T21:31:18.620Z,83.19
2023-03-29T21:36:39.772Z,83.12
2023-03-29T21:42:00.303Z,83.16
2023-03-29T21:47:20.883Z,83.12
2023-03-29T21:52:41.598Z,83.10
2023-03-29T21:58:04.418Z,83.13
2023-03-29T22:03:24.873Z,83.06
2023-03-29T22:08:46.694Z,83.24
2023-03-29T22:14:08.261Z,83.25
2023-03-29T22:19:28.528Z,83.24
2023-03-29T22:24:48.825Z,83.40
2023-03-29T22:30:10.203Z,83.20
2023-03-29T22:35:30.664Z,83.28
2023-03-29T22:40:50.871Z,83.23
2023-03-29T22:46:13.335Z,83.10
2023-03-29T22:51:34.277Z,83.06
2023-03-29T22:56:56.451Z,83.25
2023-03-29T23:02:16.920Z,83.24
2023-03-29T23:07:37.199Z,83.35
2023-03-29T23:13:08.605Z,83.32
2023-03-29T23:18:31.467Z,83.52
2023-03-29T23:23:52.080Z,83.70
2023-03-29T23:29:13.112Z,83.49
2023-03-29T23:34:33.918Z,83.40
2023-03-29T23:39:54.439Z,83.28
2023-03-29T23:45:20.942Z,83.39
2023-03-29T23:50:46.336Z,83.42
2023-03-29T23:56:07.559Z,83.43
